Pagrindinis puslapis
METAR-TAF:

METAR-TAF

Oro uostai :

Managva, Nikaragva

platuma: 12-09N, ilguma: 086-10W, Aukštis: 50 m

Dabartinis oras

Ataskaita buvo paskelbta 33 minutes, ne 11:00 UTC
Ramus vėjas
Temperatūra 23°C
Drėgmė 94%
Slėgis 1012 hPa
Matomumas: 7000 m
Su prošvaistėmis ne aukštis 2000 ft
rūkana

METAR: MNMG 161100Z 00000KT 7000 BKN020 23/22 Q1011 A2988 BR NOSIG

Laikas: 05:33 (11:33 UTC)

Prognozė

Ataskaita buvo paskelbta 7 valandos ir 23 minutes, ne 04:10 UTC
Prognozė galioja nuo 16 metu 06 UTC su 17 metu 06 UTC
Vėjas 4 kt iš Rytų/Pietryčių
Matomumas: 8000 m
Išsisklaidę debesys ne aukštis 7000 ft
dulksna
Laikinai
nuo 16 metu 10 UTC su 16 metu 17 UTC
Vėjas 4 kt iš Rytų
Matomumas 10 km arba daugiau
Išsisklaidę debesys ne aukštis 2300 ft
Tapsmas
nuo 16 metu 18 UTC su 16 metu 23 UTC
Matomumas: 7000 m
Išsisklaidę debesys ne aukštis 2500 ft
Išsisklaidę debesys ne aukštis 8000 ft

TAF: MNMG 160410Z 1606/1706 11004KT 8000 -DZ FEW0222 SCT070 TEMPO 1610/1617 09004KT 9999 SCT023 BECMG 1618/1623 7000 -DZ/RA SCT025 SCT080

Orai ataskaitas ir orų prognozės (METAR, TAF).

turimą stotys yra geltonos ir raudonos taškus žemėlapyje.

Perkelti pele per norėdami pamatyti stoties vardą.

Tada spustelėkite, norėdami matyti oro stebėjimo ir prognozės.

Norėdami pakeisti žemėlapį: spustelėkite ant žalios mygtukų su juodo kryžiaus žemyn,; žalią mygtuką su brūkšneliu, jei norite nutolinti; arba žalių rodyklių gretimoms žemėlapius.


METAR-TAF: